createdAt,value
2023-01-05T00:01:22.899Z,100009.63
2023-01-05T00:03:49.308Z,100001.41
2023-01-05T00:06:17.897Z,99999.41
2023-01-05T00:08:46.636Z,100006.59
2023-01-05T00:11:37.619Z,100016.97
2023-01-05T00:14:22.942Z,100011.06
2023-01-05T00:17:08.142Z,100003.44
2023-01-05T00:19:53.479Z,99991.22
2023-01-05T00:22:31.288Z,99999.50
2023-01-05T00:25:11.764Z,99997.47
2023-01-05T00:27:41.071Z,99991.47
2023-01-05T00:30:09.404Z,99988.56
2023-01-05T00:32:35.881Z,99992.00
2023-01-05T00:35:02.684Z,99989.75
2023-01-05T00:37:32.440Z,99997.41
2023-01-05T00:39:58.957Z,99988.34
2023-01-05T00:42:25.760Z,99988.03
2023-01-05T00:44:52.771Z,99984.25
2023-01-05T00:47:19.216Z,99987.34
2023-01-05T00:49:45.690Z,99989.06
2023-01-05T00:52:12.137Z,99989.00
2023-01-05T00:54:38.561Z,99992.00
2023-01-05T00:57:07.003Z,99980.13
2023-01-05T00:59:33.535Z,99984.66
2023-01-05T01:02:00.149Z,99985.00
2023-01-05T01:04:26.685Z,99977.47
2023-01-05T01:06:54.491Z,99990.34
2023-01-05T01:09:20.934Z,99982.59
2023-01-05T01:11:47.364Z,99986.88
2023-01-05T01:14:13.864Z,99990.06
2023-01-05T01:16:42.033Z,99990.72
2023-01-05T01:19:20.605Z,99987.19
2023-01-05T01:21:47.107Z,99994.38
2023-01-05T01:24:19.176Z,99993.53
2023-01-05T01:26:45.758Z,99993.44
2023-01-05T01:29:12.620Z,100001.91
2023-01-05T01:31:39.103Z,100002.34
2023-01-05T01:34:06.100Z,100008.47
2023-01-05T01:36:32.502Z,100013.16
2023-01-05T01:38:58.945Z,100013.94
2023-01-05T01:41:25.377Z,100005.16
2023-01-05T01:43:54.732Z,100004.16
2023-01-05T01:46:22.526Z,100009.47
2023-01-05T01:48:57.816Z,100000.09
2023-01-05T01:51:32.635Z,100010.56
2023-01-05T01:54:02.970Z,100004.59
2023-01-05T01:56:35.227Z,100007.81
2023-01-05T01:59:02.200Z,99995.44
2023-01-05T02:01:28.881Z,99996.88
2023-01-05T02:03:56.394Z,100001.28
2023-01-05T02:06:23.217Z,99995.91
2023-01-05T02:08:50.069Z,99993.63
2023-01-05T02:11:50.473Z,99998.38
2023-01-05T02:14:45.777Z,99991.84
2023-01-05T02:17:30.247Z,99997.00
2023-01-05T02:20:25.518Z,99994.66
2023-01-05T02:23:36.687Z,100003.84
2023-01-05T02:26:21.151Z,99991.06
2023-01-05T02:29:11.896Z,100001.63
2023-01-05T02:32:10.897Z,99999.38
2023-01-05T02:35:10.068Z,100000.75
2023-01-05T02:37:52.551Z,100002.28
2023-01-05T02:40:24.758Z,100001.91
2023-01-05T02:42:55.702Z,100014.03
2023-01-05T02:45:23.171Z,100014.78
2023-01-05T02:47:50.112Z,100020.22
2023-01-05T02:50:25.844Z,100028.13
2023-01-05T02:53:18.508Z,100022.59
2023-01-05T02:55:49.923Z,100023.22
2023-01-05T02:58:22.740Z,100003.56
2023-01-05T03:00:56.838Z,100012.13
2023-01-05T03:03:37.515Z,100012.44
2023-01-05T03:06:21.965Z,100017.19
2023-01-05T03:08:52.616Z,100016.81
2023-01-05T03:11:37.791Z,100024.63
2023-01-05T03:14:21.396Z,100019.44
2023-01-05T03:16:50.947Z,100014.03
2023-01-05T03:19:39.066Z,100011.16
2023-01-05T03:22:30.548Z,100016.63
2023-01-05T03:25:15.850Z,100002.66
2023-01-05T03:28:01.494Z,100019.19
2023-01-05T03:30:58.078Z,100028.28
2023-01-05T03:33:58.269Z,100034.09
2023-01-05T03:36:28.868Z,100031.50
2023-01-05T03:38:59.010Z,100028.56
2023-01-05T03:41:27.341Z,100037.59
2023-01-05T03:43:54.512Z,100033.47
2023-01-05T03:46:22.433Z,100036.31
2023-01-05T03:48:49.473Z,100049.59
2023-01-05T03:51:16.966Z,100053.31
2023-01-05T03:53:43.604Z,100066.75
2023-01-05T03:56:10.462Z,100058.19
2023-01-05T03:58:37.117Z,100065.84
2023-01-05T04:01:04.691Z,100079.44
2023-01-05T04:03:32.153Z,100060.53
2023-01-05T04:05:58.834Z,100074.53
2023-01-05T04:08:25.256Z,100076.50
2023-01-05T04:10:53.287Z,100074.03
2023-01-05T04:13:20.185Z,100083.47
2023-01-05T04:15:46.702Z,100087.81
2023-01-05T04:18:13.123Z,100079.16
2023-01-05T04:20:39.533Z,100090.38
2023-01-05T04:23:05.966Z,100083.63
2023-01-05T04:25:32.323Z,100085.91
2023-01-05T04:27:58.978Z,100088.09
2023-01-05T04:30:25.428Z,100095.41
2023-01-05T04:32:51.850Z,100087.78
2023-01-05T04:35:18.274Z,100094.38
2023-01-05T04:37:44.710Z,100094.63
2023-01-05T04:40:11.619Z,100098.47
2023-01-05T04:42:37.997Z,100102.53
2023-01-05T04:45:04.866Z,100110.44
2023-01-05T04:47:31.270Z,100117.25
2023-01-05T04:49:57.692Z,100120.56
2023-01-05T04:52:24.088Z,100121.19
2023-01-05T04:54:50.489Z,100120.25
2023-01-05T04:57:16.903Z,100114.22
2023-01-05T04:59:43.382Z,100118.97
2023-01-05T05:02:11.719Z,100121.78
2023-01-05T05:04:38.169Z,100136.75
2023-01-05T05:07:04.598Z,100136.41
2023-01-05T05:09:30.982Z,100140.28
2023-01-05T05:11:57.389Z,100144.59
2023-01-05T05:14:23.862Z,100136.28
2023-01-05T05:16:50.283Z,100119.88
2023-01-05T05:19:16.701Z,100127.91
2023-01-05T05:21:43.132Z,100125.09
2023-01-05T05:24:09.622Z,100121.25
2023-01-05T05:26:36.019Z,100122.59
2023-01-05T05:29:02.486Z,100130.09
2023-01-05T05:31:28.970Z,100131.78
2023-01-05T05:33:55.375Z,100133.34
2023-01-05T05:36:21.932Z,100138.94
2023-01-05T05:38:48.322Z,100153.91
2023-01-05T05:41:14.722Z,100149.91
2023-01-05T05:43:41.137Z,100149.16
2023-01-05T05:46:07.620Z,100159.38
2023-01-05T05:48:34.206Z,100160.69
2023-01-05T05:51:00.727Z,100168.28
2023-01-05T05:53:27.128Z,100178.66
2023-01-05T05:55:53.552Z,100164.66
2023-01-05T05:58:20.332Z,100158.31
2023-01-05T06:00:47.228Z,100174.88
2023-01-05T06:03:13.799Z,100180.97
2023-01-05T06:05:40.306Z,100181.91
2023-01-05T06:08:06.995Z,100190.38
2023-01-05T06:10:33.419Z,100197.97
2023-01-05T06:12:59.929Z,100191.81
2023-01-05T06:15:26.376Z,100198.16
2023-01-05T06:17:52.817Z,100199.72
2023-01-05T06:20:19.328Z,100197.97
2023-01-05T06:22:45.756Z,100197.28
2023-01-05T06:25:12.252Z,100200.88
2023-01-05T06:27:38.696Z,100202.47
2023-01-05T06:30:05.609Z,100212.09
2023-01-05T06:32:31.988Z,100217.56
2023-01-05T06:34:58.386Z,100211.19
2023-01-05T06:37:24.799Z,100206.00
2023-01-05T06:39:51.266Z,100209.78
2023-01-05T06:42:23.072Z,100216.31
2023-01-05T06:44:50.001Z,100216.91
2023-01-05T06:47:16.404Z,100219.84
2023-01-05T06:49:42.813Z,100228.41
2023-01-05T06:52:15.765Z,100229.63
2023-01-05T06:54:42.847Z,100236.84
2023-01-05T06:57:09.295Z,100240.22
2023-01-05T06:59:35.721Z,100236.34
2023-01-05T07:02:02.367Z,100235.72
2023-01-05T07:04:28.944Z,100252.97
2023-01-05T07:06:55.406Z,100250.06
2023-01-05T07:09:21.881Z,100255.09
2023-01-05T07:11:48.314Z,100252.00
2023-01-05T07:14:15.754Z,100259.66
2023-01-05T07:16:42.253Z,100266.91
2023-01-05T07:19:09.940Z,100266.97
2023-01-05T07:21:36.326Z,100279.19
2023-01-05T07:24:03.788Z,100282.72
2023-01-05T07:26:30.243Z,100295.44
2023-01-05T07:28:58.427Z,100293.81
2023-01-05T07:31:24.865Z,100304.56
2023-01-05T07:33:51.383Z,100306.34
2023-01-05T07:36:17.851Z,100312.19
2023-01-05T07:38:44.320Z,100310.03
2023-01-05T07:41:10.731Z,100301.03
2023-01-05T07:43:37.296Z,100317.19
2023-01-05T07:46:04.250Z,100299.00
2023-01-05T07:48:30.886Z,100316.72
2023-01-05T07:51:01.616Z,100320.28
2023-01-05T07:53:30.001Z,100322.44
2023-01-05T07:55:58.660Z,100317.56
2023-01-05T07:58:26.358Z,100327.72
2023-01-05T08:00:53.123Z,100327.72
2023-01-05T08:03:19.731Z,100328.38
2023-01-05T08:05:46.647Z,100333.94
2023-01-05T08:08:19.117Z,100334.16
2023-01-05T08:10:48.866Z,100326.19
2023-01-05T08:13:33.602Z,100318.16
2023-01-05T08:16:00.271Z,100336.78
2023-01-05T08:18:27.000Z,100340.44
2023-01-05T08:20:56.015Z,100339.72
2023-01-05T08:23:25.193Z,100326.00
2023-01-05T08:25:53.773Z,100342.50
2023-01-05T08:28:20.309Z,100354.81
2023-01-05T08:30:47.570Z,100352.59
2023-01-05T08:33:14.044Z,100362.16
2023-01-05T08:35:42.164Z,100366.81
2023-01-05T08:38:09.027Z,100373.75
2023-01-05T08:40:37.843Z,100377.47
2023-01-05T08:43:05.835Z,100382.84
2023-01-05T08:45:33.103Z,100392.97
2023-01-05T08:48:01.083Z,100393.78
2023-01-05T08:50:27.673Z,100389.53
2023-01-05T08:52:54.076Z,100412.19
2023-01-05T08:55:20.584Z,100387.41
2023-01-05T08:57:47.039Z,100405.91
2023-01-05T09:00:14.172Z,100401.88
2023-01-05T09:02:40.921Z,100412.47
2023-01-05T09:05:08.284Z,100403.81
2023-01-05T09:07:34.864Z,100403.38
2023-01-05T09:10:01.275Z,100406.75
2023-01-05T09:12:32.803Z,100409.75
2023-01-05T09:14:59.677Z,100426.66
2023-01-05T09:17:26.155Z,100415.63
2023-01-05T09:19:52.612Z,100406.50
2023-01-05T09:22:19.022Z,100435.22
2023-01-05T09:24:45.766Z,100434.88
2023-01-05T09:27:12.199Z,100424.38
2023-01-05T09:29:38.698Z,100450.13
2023-01-05T09:32:05.986Z,100437.13
2023-01-05T09:34:32.697Z,100449.22
2023-01-05T09:36:59.395Z,100437.94
2023-01-05T09:39:25.897Z,100455.97
2023-01-05T09:41:58.957Z,100443.56
2023-01-05T09:44:25.363Z,100452.19
2023-01-05T09:46:53.865Z,100449.13
2023-01-05T09:49:23.327Z,100457.66
2023-01-05T09:51:57.828Z,100461.06
2023-01-05T09:54:27.002Z,100453.75
2023-01-05T09:57:10.859Z,100456.94
2023-01-05T09:59:42.587Z,100457.78
2023-01-05T10:02:26.188Z,100468.25
2023-01-05T10:04:54.303Z,100457.06
2023-01-05T10:07:44.372Z,100470.06
2023-01-05T10:10:30.752Z,100472.72
2023-01-05T10:13:07.030Z,100470.84
2023-01-05T10:15:48.130Z,100481.31
2023-01-05T10:18:19.080Z,100498.75
2023-01-05T10:20:54.426Z,100477.28
2023-01-05T10:23:21.468Z,100495.84
2023-01-05T10:25:47.894Z,100490.91
2023-01-05T10:28:38.472Z,100505.22
2023-01-05T10:31:22.774Z,100510.81
2023-01-05T10:34:00.227Z,100507.50
2023-01-05T10:39:34.744Z,100518.31
2023-01-05T10:42:27.567Z,100529.47
2023-01-05T10:45:03.241Z,100540.88
2023-01-05T10:47:32.693Z,100548.84
2023-01-05T10:50:01.179Z,100558.84
2023-01-05T10:52:27.803Z,100568.44
2023-01-05T10:54:58.160Z,100568.66
2023-01-05T10:57:35.130Z,100566.84
2023-01-05T11:00:11.395Z,100575.59
2023-01-05T11:02:42.935Z,100566.16
2023-01-05T11:05:12.878Z,100558.38
2023-01-05T11:07:51.634Z,100571.81
2023-01-05T11:10:24.564Z,100575.59
2023-01-05T11:12:55.605Z,100586.19
2023-01-05T11:15:22.046Z,100580.25
2023-01-05T11:17:48.533Z,100587.22
2023-01-05T11:20:17.152Z,100597.38
2023-01-05T11:22:44.395Z,100603.81
2023-01-05T11:25:30.669Z,100618.06
2023-01-05T11:28:11.348Z,100631.94
2023-01-05T11:30:59.853Z,100630.03
2023-01-05T11:33:29.251Z,100642.34
2023-01-05T11:35:57.289Z,100647.47
2023-01-05T11:38:29.235Z,100653.81
2023-01-05T11:41:00.025Z,100661.22
2023-01-05T11:43:29.959Z,100675.69
2023-01-05T11:46:03.553Z,100677.19
2023-01-05T11:48:33.553Z,100682.78
2023-01-05T11:51:00.442Z,100682.56
2023-01-05T11:53:38.199Z,100702.97
2023-01-05T11:56:17.638Z,100688.38
2023-01-05T11:58:45.884Z,100710.59
2023-01-05T12:01:43.189Z,100697.97
2023-01-05T12:04:24.744Z,100709.91
2023-01-05T12:07:18.588Z,100706.81
2023-01-05T12:09:58.045Z,100730.47
2023-01-05T12:12:27.468Z,100723.31
2023-01-05T12:15:21.790Z,100743.00
2023-01-05T12:18:17.424Z,100737.59
2023-01-05T12:21:02.303Z,100739.56
2023-01-05T12:23:45.006Z,100759.28
2023-01-05T12:26:38.714Z,100767.16
2023-01-05T12:30:32.999Z,100776.16
2023-01-05T12:36:02.322Z,100787.31
2023-01-05T12:38:34.737Z,100795.16
2023-01-05T12:41:33.926Z,100802.13
2023-01-05T12:44:47.948Z,100800.84
2023-01-05T12:47:25.973Z,100822.72
2023-01-05T12:50:16.727Z,100817.38
2023-01-05T12:52:49.161Z,100815.88
2023-01-05T12:55:20.682Z,100818.81
2023-01-05T12:57:54.060Z,100829.53
2023-01-05T13:00:21.878Z,100844.09
2023-01-05T13:02:54.412Z,100850.84
2023-01-05T13:05:46.182Z,100845.25
2023-01-05T13:08:21.037Z,100849.19
2023-01-05T13:11:25.281Z,100845.97
2023-01-05T13:13:56.854Z,100859.66
2023-01-05T13:16:43.051Z,100858.44
2023-01-05T13:19:20.916Z,100858.97
2023-01-05T13:21:47.976Z,100862.72
2023-01-05T13:24:31.161Z,100884.31
2023-01-05T13:26:59.637Z,100882.69
2023-01-05T13:29:48.791Z,100890.44
2023-01-05T13:32:54.746Z,100897.50
2023-01-05T13:35:37.061Z,100910.75
2023-01-05T13:38:22.179Z,100914.06
2023-01-05T13:41:03.498Z,100916.66
2023-01-05T13:43:45.791Z,100930.47
2023-01-05T13:46:21.392Z,100915.63
2023-01-05T13:49:03.176Z,100933.41
2023-01-05T13:51:54.606Z,100928.28
2023-01-05T13:54:49.480Z,100943.59
2023-01-05T13:57:26.816Z,100938.88
2023-01-05T14:00:09.527Z,100945.09
2023-01-05T14:02:41.638Z,100966.00
2023-01-05T14:05:26.085Z,100965.81
2023-01-05T14:07:54.568Z,100968.16
2023-01-05T14:10:27.229Z,100980.94
2023-01-05T14:12:54.378Z,100980.47
2023-01-05T14:15:38.177Z,100988.22
2023-01-05T14:18:06.529Z,100996.91
2023-01-05T14:20:46.208Z,101001.84
2023-01-05T14:23:24.728Z,101020.44
2023-01-05T14:26:00.480Z,101011.91
2023-01-05T14:28:31.154Z,101023.19
2023-01-05T14:31:16.600Z,101030.88
2023-01-05T14:34:00.748Z,101051.50
2023-01-05T14:36:37.920Z,101053.41
2023-01-05T14:39:20.873Z,101065.97
2023-01-05T14:41:59.290Z,101072.25
2023-01-05T14:44:31.870Z,101068.44
2023-01-05T14:46:58.591Z,101080.50
2023-01-05T14:49:36.849Z,101080.50
2023-01-05T14:52:06.831Z,101096.06
2023-01-05T14:54:40.509Z,101099.78
2023-01-05T14:57:25.320Z,101110.22
2023-01-05T15:00:04.760Z,101108.63
2023-01-05T15:02:52.585Z,101122.09
2023-01-05T15:05:20.921Z,101124.03
2023-01-05T15:08:19.856Z,101130.13
2023-01-05T15:10:46.229Z,101135.09
2023-01-05T15:13:24.815Z,101132.06
2023-01-05T15:16:25.349Z,101139.59
2023-01-05T15:19:11.442Z,101150.66
2023-01-05T15:21:56.073Z,101153.72
2023-01-05T15:24:44.550Z,101161.41
2023-01-05T15:27:36.425Z,101167.69
2023-01-05T15:30:33.577Z,101167.53
2023-01-05T15:33:35.875Z,101173.47
2023-01-05T15:36:05.231Z,101179.41
2023-01-05T15:38:43.584Z,101177.31
2023-01-05T15:41:13.336Z,101186.94
2023-01-05T15:43:42.491Z,101204.28
2023-01-05T15:46:11.141Z,101190.00
2023-01-05T15:48:46.345Z,101189.69
2023-01-05T15:51:28.711Z,101195.00
2023-01-05T15:54:05.495Z,101203.47
2023-01-05T15:56:41.153Z,101207.50
2023-01-05T15:59:40.404Z,101207.34
2023-01-05T16:02:27.339Z,101213.09
2023-01-05T16:05:24.193Z,101208.63
2023-01-05T16:07:57.639Z,101219.41
2023-01-05T16:10:37.542Z,101207.81
2023-01-05T16:13:16.607Z,101218.41
2023-01-05T16:15:47.434Z,101220.66
2023-01-05T16:18:23.359Z,101231.72
2023-01-05T16:20:53.351Z,101232.19
2023-01-05T16:23:19.670Z,101241.50
2023-01-05T16:26:04.487Z,101240.06
2023-01-05T16:28:30.960Z,101253.72
2023-01-05T16:30:57.447Z,101253.22
2023-01-05T16:33:39.176Z,101256.28
2023-01-05T16:36:09.415Z,101260.31
2023-01-05T16:38:36.175Z,101276.53
2023-01-05T16:41:07.479Z,101274.75
2023-01-05T16:43:43.560Z,101267.38
2023-01-05T16:46:18.693Z,101279.25
2023-01-05T16:48:51.193Z,101278.44
2023-01-05T16:51:21.086Z,101273.78
2023-01-05T16:53:54.617Z,101283.25
2023-01-05T16:56:34.569Z,101281.00
2023-01-05T16:59:03.469Z,101296.38
2023-01-05T17:01:40.197Z,101298.78
2023-01-05T17:04:14.335Z,101309.69
2023-01-05T17:06:51.488Z,101301.19
2023-01-05T17:09:33.304Z,101310.97
2023-01-05T17:11:59.661Z,101319.19
2023-01-05T17:14:28.099Z,101311.28
2023-01-05T17:16:55.199Z,101314.00
2023-01-05T17:19:21.821Z,101314.50
2023-01-05T17:21:56.553Z,101320.88
2023-01-05T17:24:23.589Z,101328.94
2023-01-05T17:26:50.157Z,101327.03
2023-01-05T17:29:22.706Z,101332.28
2023-01-05T17:31:49.399Z,101323.28
2023-01-05T17:34:15.946Z,101324.88
2023-01-05T17:36:43.336Z,101317.19
2023-01-05T17:39:20.914Z,101320.88
2023-01-05T17:41:47.417Z,101325.53
2023-01-05T17:44:13.956Z,101319.88
2023-01-05T17:46:42.970Z,101334.03
2023-01-05T17:49:15.083Z,101331.13
2023-01-05T17:51:41.540Z,101340.38
2023-01-05T17:54:07.994Z,101352.09
2023-01-05T17:56:34.676Z,101351.91
2023-01-05T17:59:03.140Z,101357.72
2023-01-05T18:01:29.651Z,101363.97
2023-01-05T18:03:56.129Z,101354.78
2023-01-05T18:06:22.514Z,101362.50
2023-01-05T18:08:48.919Z,101361.81
2023-01-05T18:11:17.271Z,101353.81
2023-01-05T18:13:44.443Z,101360.84
2023-01-05T18:16:12.409Z,101369.88
2023-01-05T18:18:39.061Z,101371.75
2023-01-05T18:21:05.978Z,101374.16
2023-01-05T18:23:32.945Z,101378.63
2023-01-05T18:26:07.310Z,101380.25
2023-01-05T18:28:33.853Z,101383.31
2023-01-05T18:31:01.101Z,101383.03
2023-01-05T18:33:28.108Z,101369.69
2023-01-05T18:38:21.782Z,101367.28
2023-01-05T18:40:49.984Z,101368.72
2023-01-05T18:43:16.998Z,101381.41
2023-01-05T18:45:43.509Z,101390.72
2023-01-05T18:48:10.059Z,101392.00
2023-01-05T18:50:44.443Z,101401.16
2023-01-05T18:53:11.606Z,101409.34
2023-01-05T18:55:41.802Z,101406.25
2023-01-05T18:58:08.749Z,101401.09
2023-01-05T19:00:35.451Z,101400.94
2023-01-05T19:03:02.155Z,101414.19
2023-01-05T19:05:28.612Z,101410.09
2023-01-05T19:07:55.061Z,101397.09
2023-01-05T19:10:21.862Z,101408.91
2023-01-05T19:12:48.322Z,101406.50
2023-01-05T19:15:14.871Z,101404.59
2023-01-05T19:17:41.315Z,101419.25
2023-01-05T19:20:08.255Z,101413.03
2023-01-05T19:22:35.090Z,101421.63
2023-01-05T19:25:01.582Z,101428.00
2023-01-05T19:27:28.053Z,101423.59
2023-01-05T19:29:54.559Z,101423.66
2023-01-05T19:32:21.043Z,101420.63
2023-01-05T19:34:47.507Z,101424.34
2023-01-05T19:37:14.051Z,101421.63
2023-01-05T19:39:41.102Z,101418.72
2023-01-05T19:42:07.618Z,101426.22
2023-01-05T19:44:34.073Z,101431.03
2023-01-05T19:47:00.479Z,101430.38
2023-01-05T19:49:27.757Z,101428.75
2023-01-05T19:51:54.721Z,101435.00
2023-01-05T19:54:22.427Z,101431.13
2023-01-05T19:56:48.954Z,101432.63
2023-01-05T19:59:24.404Z,101439.03
2023-01-05T20:01:50.926Z,101439.22
2023-01-05T20:04:17.515Z,101434.81
2023-01-05T20:06:45.508Z,101431.69
2023-01-05T20:09:17.217Z,101436.06
2023-01-05T20:11:45.127Z,101431.50
2023-01-05T20:14:24.253Z,101433.44
2023-01-05T20:17:01.435Z,101442.47
2023-01-05T20:19:31.304Z,101446.22
2023-01-05T20:21:59.891Z,101448.13
2023-01-05T20:24:29.751Z,101461.44
2023-01-05T20:27:00.180Z,101458.22
2023-01-05T20:29:28.096Z,101457.63
2023-01-05T20:32:00.808Z,101462.88
2023-01-05T20:34:31.865Z,101467.50
2023-01-05T20:37:03.959Z,101463.66
2023-01-05T20:39:31.447Z,101473.16
2023-01-05T20:42:04.463Z,101479.03
2023-01-05T20:44:33.538Z,101482.66
2023-01-05T20:47:00.554Z,101474.50
2023-01-05T20:49:27.172Z,101480.72
2023-01-05T20:51:53.974Z,101483.38
2023-01-05T20:54:20.398Z,101490.63
2023-01-05T20:56:46.949Z,101487.69
2023-01-05T20:59:19.496Z,101484.28
2023-01-05T21:01:46.597Z,101481.56
2023-01-05T21:04:13.825Z,101489.28
2023-01-05T21:06:40.413Z,101493.75
2023-01-05T21:09:08.303Z,101486.81
2023-01-05T21:11:35.491Z,101479.97
2023-01-05T21:14:02.836Z,101492.56
2023-01-05T21:16:33.196Z,101484.59
2023-01-05T21:19:01.340Z,101480.69
2023-01-05T21:21:29.151Z,101479.00
2023-01-05T21:23:55.667Z,101480.69
2023-01-05T21:26:23.192Z,101488.03
2023-01-05T21:28:51.668Z,101493.31
2023-01-05T21:31:21.781Z,101487.06
2023-01-05T21:33:48.497Z,101498.94
2023-01-05T21:36:20.451Z,101507.22
2023-01-05T21:39:03.773Z,101504.47
2023-01-05T21:41:54.013Z,101499.88
2023-01-05T21:44:21.082Z,101499.22
2023-01-05T21:46:49.154Z,101499.22
2023-01-05T21:49:16.761Z,101491.69
2023-01-05T21:52:01.842Z,101495.31
2023-01-05T21:54:47.187Z,101483.78
2023-01-05T21:57:13.825Z,101485.38
2023-01-05T21:59:41.011Z,101478.31
2023-01-05T22:02:07.735Z,101480.09
2023-01-05T22:04:34.239Z,101485.31
2023-01-05T22:07:01.060Z,101480.72
2023-01-05T22:09:27.491Z,101481.47
2023-01-05T22:11:53.916Z,101487.16
2023-01-05T22:14:20.376Z,101484.50
2023-01-05T22:16:46.844Z,101492.59
2023-01-05T22:19:13.294Z,101485.38
2023-01-05T22:21:39.715Z,101491.19
2023-01-05T22:24:06.814Z,101496.75
2023-01-05T22:26:33.264Z,101496.56
2023-01-05T22:28:59.682Z,101497.22
2023-01-05T22:31:28.572Z,101499.34
2023-01-05T22:34:00.816Z,101495.38
2023-01-05T22:36:28.805Z,101493.88
2023-01-05T22:38:56.081Z,101493.94
2023-01-05T22:41:25.763Z,101484.00
2023-01-05T22:43:52.868Z,101487.94
2023-01-05T22:46:21.978Z,101488.00
2023-01-05T22:48:51.289Z,101490.22
2023-01-05T22:51:42.545Z,101500.53
2023-01-05T22:54:09.078Z,101497.88
2023-01-05T22:56:35.594Z,101504.72
2023-01-05T22:59:02.562Z,101505.75
2023-01-05T23:01:35.063Z,101507.69
2023-01-05T23:04:04.011Z,101511.53
2023-01-05T23:06:30.486Z,101508.31
2023-01-05T23:08:57.793Z,101516.97
2023-01-05T23:11:30.017Z,101510.44
2023-01-05T23:13:58.076Z,101520.13
2023-01-05T23:16:25.412Z,101515.81
2023-01-05T23:18:52.423Z,101514.22
2023-01-05T23:21:20.475Z,101510.97
2023-01-05T23:23:47.417Z,101518.00
2023-01-05T23:26:15.291Z,101521.28
2023-01-05T23:28:43.288Z,101513.22
2023-01-05T23:31:11.424Z,101515.91
2023-01-05T23:33:38.006Z,101509.63
2023-01-05T23:36:05.303Z,101500.47
2023-01-05T23:38:33.170Z,101500.41
2023-01-05T23:41:00.649Z,101497.47
2023-01-05T23:43:29.731Z,101502.31
2023-01-05T23:46:02.170Z,101497.66
2023-01-05T23:48:29.051Z,101501.41
2023-01-05T23:50:56.577Z,101492.44
2023-01-05T23:53:23.720Z,101494.91
2023-01-05T23:55:50.478Z,101487.03
2023-01-05T23:58:16.889Z,101486.25
